createdAt,value
2018-07-22T00:00:45.339Z,99.90
2018-07-22T00:03:13.641Z,99.90
2018-07-22T00:05:41.975Z,99.90
2018-07-22T00:08:10.281Z,99.90
2018-07-22T00:10:38.547Z,99.90
2018-07-22T00:13:06.932Z,99.90
2018-07-22T00:15:36.199Z,99.90
2018-07-22T00:18:04.515Z,99.90
2018-07-22T00:20:32.771Z,99.90
2018-07-22T00:23:01.049Z,99.90
2018-07-22T00:25:29.327Z,99.90
2018-07-22T00:27:57.629Z,99.90
2018-07-22T00:30:25.982Z,99.90
2018-07-22T00:32:54.275Z,99.90
2018-07-22T00:35:22.519Z,99.90
2018-07-22T00:37:50.823Z,99.90
2018-07-22T00:40:19.143Z,99.90
2018-07-22T00:42:47.487Z,99.90
2018-07-22T00:45:15.756Z,99.90
2018-07-22T00:47:43.999Z,99.90
2018-07-22T00:50:12.302Z,99.90
2018-07-22T00:52:40.646Z,99.90
2018-07-22T00:55:09.018Z,99.90
2018-07-22T00:57:37.326Z,99.90
2018-07-22T01:00:07.415Z,99.90
2018-07-22T01:02:35.651Z,99.90
2018-07-22T01:05:03.931Z,99.90
2018-07-22T01:07:32.186Z,99.90
2018-07-22T01:10:00.763Z,99.90
2018-07-22T01:12:29.052Z,99.90
2018-07-22T01:14:57.384Z,99.90
2018-07-22T01:17:25.696Z,99.90
2018-07-22T01:19:53.975Z,99.90
2018-07-22T01:22:22.253Z,99.90
2018-07-22T01:24:50.578Z,99.90
2018-07-22T01:27:19.296Z,99.90
2018-07-22T01:29:47.607Z,99.90
2018-07-22T01:32:15.905Z,99.90
2018-07-22T01:34:44.193Z,99.90
2018-07-22T01:37:12.684Z,99.90
2018-07-22T01:39:41.008Z,99.90
2018-07-22T01:42:09.296Z,99.90
2018-07-22T01:44:37.601Z,99.90
2018-07-22T01:47:05.946Z,99.90
2018-07-22T01:49:34.230Z,99.90
2018-07-22T01:52:02.511Z,99.90
2018-07-22T01:54:30.756Z,99.90
2018-07-22T01:56:59.083Z,99.90
2018-07-22T01:59:27.319Z,99.90
2018-07-22T02:01:55.622Z,99.90
2018-07-22T02:04:23.877Z,99.90
2018-07-22T02:06:52.186Z,99.90
2018-07-22T02:09:20.451Z,99.90
2018-07-22T02:11:48.727Z,99.90
2018-07-22T02:14:17.006Z,99.90
2018-07-22T02:16:45.330Z,99.90
2018-07-22T02:19:13.641Z,99.90
2018-07-22T02:21:41.961Z,99.90
2018-07-22T02:24:10.357Z,99.90
2018-07-22T02:26:38.723Z,99.90
2018-07-22T02:29:07.080Z,99.90
2018-07-22T02:31:35.360Z,99.90
2018-07-22T02:34:03.732Z,99.90
2018-07-22T02:36:32.014Z,99.90
2018-07-22T02:39:00.262Z,99.90
2018-07-22T02:41:28.588Z,99.90
2018-07-22T02:43:56.938Z,99.90
2018-07-22T02:46:25.296Z,99.90
2018-07-22T02:48:53.589Z,99.90
2018-07-22T02:51:21.946Z,99.90
2018-07-22T02:53:50.237Z,99.90
2018-07-22T02:56:18.553Z,99.90
2018-07-22T02:58:46.892Z,99.90
2018-07-22T03:01:15.276Z,99.90
2018-07-22T03:03:44.115Z,99.90
2018-07-22T03:06:12.496Z,99.90
2018-07-22T03:08:40.835Z,99.90
2018-07-22T03:11:09.096Z,99.90
2018-07-22T03:13:37.402Z,99.90
2018-07-22T03:16:05.702Z,99.90
2018-07-22T03:18:34.050Z,99.90
2018-07-22T03:21:02.420Z,99.90
2018-07-22T03:23:30.745Z,99.90
2018-07-22T03:25:59.084Z,99.90
2018-07-22T03:28:27.312Z,99.90
2018-07-22T03:30:55.614Z,99.90
2018-07-22T03:33:23.919Z,99.90
2018-07-22T03:35:52.179Z,99.90
2018-07-22T03:38:20.474Z,99.90
2018-07-22T03:40:48.760Z,99.90
2018-07-22T03:45:45.073Z,99.90
2018-07-22T03:48:13.400Z,99.90
2018-07-22T03:50:41.643Z,99.90
2018-07-22T03:53:09.929Z,99.90
2018-07-22T03:55:38.183Z,99.90
2018-07-22T03:58:06.512Z,99.90
2018-07-22T04:00:34.853Z,99.90
2018-07-22T04:03:03.154Z,99.90
2018-07-22T04:05:31.412Z,99.90
2018-07-22T04:07:59.671Z,99.90
2018-07-22T04:10:28.014Z,99.90
2018-07-22T04:12:56.399Z,99.90
2018-07-22T04:15:24.709Z,99.90
2018-07-22T04:17:53.011Z,99.90
2018-07-22T04:20:21.270Z,99.90
2018-07-22T04:22:49.929Z,99.90
2018-07-22T04:25:18.223Z,99.90
2018-07-22T04:27:46.550Z,99.90
2018-07-22T04:30:14.890Z,99.90
2018-07-22T04:32:43.176Z,99.90
2018-07-22T04:35:11.499Z,99.90
2018-07-22T04:37:39.819Z,99.90
2018-07-22T04:40:08.110Z,99.90
2018-07-22T04:42:36.389Z,99.90
2018-07-22T04:45:05.995Z,99.90
2018-07-22T04:47:34.267Z,99.90
2018-07-22T04:50:02.584Z,99.90
2018-07-22T04:52:30.979Z,99.90
2018-07-22T04:54:59.321Z,99.90
2018-07-22T04:57:27.582Z,99.90
2018-07-22T04:59:55.863Z,99.90
2018-07-22T05:02:24.187Z,99.90
2018-07-22T05:04:52.557Z,99.90
2018-07-22T05:07:20.886Z,99.90
2018-07-22T05:09:49.211Z,99.90
2018-07-22T05:12:17.608Z,99.90
2018-07-22T05:14:45.987Z,99.90
2018-07-22T05:17:14.313Z,99.90
2018-07-22T05:19:42.589Z,99.90
2018-07-22T05:22:10.857Z,99.90
2018-07-22T05:24:39.141Z,99.90
2018-07-22T05:27:07.392Z,99.90
2018-07-22T05:29:35.723Z,99.90
2018-07-22T05:32:03.974Z,99.90
2018-07-22T05:34:32.492Z,99.90
2018-07-22T05:37:00.835Z,99.90
2018-07-22T05:39:29.150Z,99.90
2018-07-22T05:41:57.485Z,99.90
2018-07-22T05:44:25.783Z,99.90
2018-07-22T05:46:54.060Z,99.90
2018-07-22T05:49:22.388Z,99.90
2018-07-22T05:51:50.713Z,99.90
2018-07-22T05:54:19.055Z,99.90
2018-07-22T05:56:47.376Z,99.90
2018-07-22T05:59:15.650Z,99.90
2018-07-22T06:01:43.934Z,99.90
2018-07-22T06:04:12.224Z,99.90
2018-07-22T06:06:40.582Z,99.90
2018-07-22T06:09:09.763Z,99.90
2018-07-22T06:11:38.030Z,99.90
2018-07-22T06:14:06.439Z,99.90
2018-07-22T06:19:02.769Z,99.90
2018-07-22T06:21:31.139Z,99.90
2018-07-22T06:23:59.429Z,99.90
2018-07-22T06:26:27.740Z,99.90
2018-07-22T06:28:55.974Z,99.90
2018-07-22T06:31:24.351Z,99.90
2018-07-22T06:35:21.983Z,99.90
2018-07-22T06:37:50.318Z,99.90
2018-07-22T06:40:19.659Z,99.90
2018-07-22T06:42:48.040Z,99.90
2018-07-22T06:45:16.339Z,99.90
2018-07-22T06:47:44.682Z,99.90
2018-07-22T06:50:13.067Z,99.90
2018-07-22T06:52:41.446Z,99.90
2018-07-22T06:55:09.851Z,99.90
2018-07-22T06:57:38.273Z,99.90
2018-07-22T07:00:06.797Z,99.90
2018-07-22T07:02:35.511Z,99.90
2018-07-22T07:05:04.551Z,99.90
2018-07-22T07:07:32.927Z,99.90
2018-07-22T07:12:29.350Z,99.90
2018-07-22T07:14:57.725Z,99.90
2018-07-22T07:17:26.162Z,99.90
2018-07-22T07:19:54.459Z,99.90
2018-07-22T07:22:22.860Z,99.90
2018-07-22T07:24:51.358Z,99.90
2018-07-22T07:27:19.714Z,99.90
2018-07-22T07:29:48.118Z,99.90
2018-07-22T07:32:16.494Z,99.90
2018-07-22T07:34:44.802Z,99.90
2018-07-22T07:37:13.190Z,99.90
2018-07-22T07:39:41.471Z,99.90
2018-07-22T07:42:09.807Z,99.90
2018-07-22T07:44:38.112Z,99.90
2018-07-22T07:47:06.472Z,99.90
2018-07-22T07:49:34.868Z,99.90
2018-07-22T07:52:03.310Z,99.90
2018-07-22T07:54:31.714Z,99.90
2018-07-22T07:57:00.071Z,99.90
2018-07-22T07:59:28.388Z,99.90
2018-07-22T08:01:56.723Z,99.90
2018-07-22T08:04:25.127Z,99.90
2018-07-22T08:06:53.437Z,99.90
2018-07-22T08:09:21.756Z,99.90
2018-07-22T08:11:50.149Z,99.90
2018-07-22T08:14:18.418Z,99.90
2018-07-22T08:16:46.776Z,99.90
2018-07-22T08:19:15.248Z,99.90
2018-07-22T08:21:44.331Z,99.90
2018-07-22T08:24:12.943Z,99.90
2018-07-22T08:26:41.294Z,99.90
2018-07-22T08:29:31.378Z,99.90
2018-07-22T08:32:01.288Z,99.90
2018-07-22T08:34:29.884Z,99.90
2018-07-22T08:36:58.240Z,99.90
2018-07-22T08:39:27.770Z,99.90
2018-07-22T08:41:56.483Z,99.90
2018-07-22T08:44:24.850Z,99.90
2018-07-22T08:46:53.213Z,99.10
2018-07-22T08:49:21.539Z,98.80
2018-07-22T08:51:49.913Z,98.10
2018-07-22T08:54:18.350Z,98.50
2018-07-22T08:56:47.533Z,97.00
2018-07-22T08:59:15.898Z,99.00
2018-07-22T09:01:44.222Z,98.20
2018-07-22T09:04:12.627Z,98.50
2018-07-22T09:06:40.980Z,97.20
2018-07-22T09:09:11.115Z,96.40
2018-07-22T09:11:39.499Z,94.10
2018-07-22T09:14:08.594Z,95.30
2018-07-22T09:16:36.953Z,95.60
2018-07-22T09:19:05.398Z,95.90
2018-07-22T09:21:33.901Z,96.00
2018-07-22T09:24:02.216Z,96.20
2018-07-22T09:26:30.597Z,95.00
2018-07-22T09:28:59.025Z,94.50
2018-07-22T09:31:27.462Z,94.10
2018-07-22T09:33:55.889Z,94.50
2018-07-22T09:36:24.260Z,92.00
2018-07-22T09:38:52.577Z,92.50
2018-07-22T09:41:21.117Z,92.10
2018-07-22T09:43:49.540Z,93.30
2018-07-22T09:46:18.200Z,93.70
2018-07-22T09:48:46.475Z,91.50
2018-07-22T09:51:14.822Z,90.50
2018-07-22T09:53:43.199Z,91.60
2018-07-22T09:56:11.571Z,91.80
2018-07-22T09:58:39.945Z,91.90
2018-07-22T10:01:08.328Z,91.20
2018-07-22T10:03:36.706Z,89.60
2018-07-22T10:06:05.220Z,91.40
2018-07-22T10:08:33.747Z,90.80
2018-07-22T10:11:02.281Z,90.30
2018-07-22T10:13:30.572Z,88.30
2018-07-22T10:15:59.074Z,89.40
2018-07-22T10:19:30.550Z,87.10
2018-07-22T10:21:58.952Z,87.00
2018-07-22T10:24:27.341Z,88.60
2018-07-22T10:26:56.470Z,88.10
2018-07-22T10:29:24.796Z,87.50
2018-07-22T10:31:53.216Z,87.50
2018-07-22T10:34:21.587Z,88.50
2018-07-22T10:36:49.949Z,89.20
2018-07-22T10:39:18.430Z,89.80
2018-07-22T10:41:46.989Z,90.30
2018-07-22T10:44:15.496Z,90.00
2018-07-22T10:46:44.222Z,90.40
2018-07-22T10:49:12.561Z,90.80
2018-07-22T10:51:40.981Z,92.00
2018-07-22T10:54:09.474Z,91.30
2018-07-22T10:56:37.789Z,90.80
2018-07-22T10:59:06.233Z,91.30
2018-07-22T11:01:34.628Z,91.80
2018-07-22T11:04:02.972Z,88.10
2018-07-22T11:06:31.329Z,90.40
2018-07-22T11:08:59.726Z,88.10
2018-07-22T11:11:28.169Z,88.20
2018-07-22T11:13:56.728Z,89.20
2018-07-22T11:16:25.038Z,91.40
2018-07-22T11:18:53.461Z,91.20
2018-07-22T11:21:21.893Z,90.20
2018-07-22T11:23:52.216Z,90.50
2018-07-22T11:26:20.622Z,90.80
2018-07-22T11:28:49.083Z,93.00
2018-07-22T11:31:17.368Z,91.90
2018-07-22T11:33:45.740Z,90.10
2018-07-22T11:36:14.102Z,85.30
2018-07-22T11:38:42.518Z,86.80
2018-07-22T11:41:10.918Z,90.50
2018-07-22T11:43:39.303Z,88.60
2018-07-22T11:46:07.677Z,86.90
2018-07-22T11:48:36.050Z,85.90
2018-07-22T11:51:04.413Z,86.40
2018-07-22T11:53:32.798Z,90.00
2018-07-22T11:56:01.150Z,89.00
2018-07-22T11:58:30.454Z,91.10
2018-07-22T12:00:58.798Z,91.10
2018-07-22T12:03:27.149Z,88.30
2018-07-22T12:05:55.578Z,89.20
2018-07-22T12:08:23.927Z,89.90
2018-07-22T12:10:52.405Z,91.00
2018-07-22T12:13:20.987Z,91.20
2018-07-22T12:15:49.456Z,89.20
2018-07-22T12:18:18.508Z,91.80
2018-07-22T12:20:46.854Z,90.40
2018-07-22T12:23:15.168Z,90.60
2018-07-22T12:25:43.614Z,89.70
2018-07-22T12:28:11.928Z,89.10
2018-07-22T12:30:40.414Z,90.10
2018-07-22T12:33:08.822Z,90.80
2018-07-22T12:35:37.246Z,90.80
2018-07-22T12:38:05.830Z,90.70
2018-07-22T12:40:34.201Z,92.20
2018-07-22T12:43:02.652Z,90.40
2018-07-22T12:45:31.031Z,91.20
2018-07-22T12:47:59.361Z,91.80
2018-07-22T12:50:27.823Z,91.50
2018-07-22T12:52:56.225Z,92.10
2018-07-22T12:55:24.697Z,91.10
2018-07-22T12:57:53.133Z,87.80
2018-07-22T13:00:21.498Z,90.60
2018-07-22T13:02:49.878Z,91.70
2018-07-22T13:05:18.229Z,90.10
2018-07-22T13:07:46.632Z,90.40
2018-07-22T13:10:15.545Z,88.80
2018-07-22T13:12:43.934Z,90.80
2018-07-22T13:15:12.273Z,90.40
2018-07-22T13:17:40.654Z,90.80
2018-07-22T13:20:09.898Z,89.20
2018-07-22T13:22:38.371Z,89.60
2018-07-22T13:25:06.789Z,88.60
2018-07-22T13:27:35.258Z,90.10
2018-07-22T13:30:03.859Z,89.10
2018-07-22T13:32:32.256Z,89.70
2018-07-22T13:35:00.626Z,90.10
2018-07-22T13:37:29.040Z,90.40
2018-07-22T13:39:57.386Z,89.00
2018-07-22T13:42:25.789Z,88.20
2018-07-22T13:44:54.151Z,91.30
2018-07-22T13:47:22.509Z,90.30
2018-07-22T13:49:50.913Z,90.30
2018-07-22T13:52:19.442Z,90.20
2018-07-22T13:57:15.948Z,90.70
2018-07-22T13:59:44.353Z,88.80
2018-07-22T14:02:12.679Z,89.70
2018-07-22T14:04:41.068Z,90.20
2018-07-22T14:07:09.469Z,89.10
2018-07-22T14:09:37.857Z,89.40
2018-07-22T14:12:06.412Z,88.20
2018-07-22T14:14:34.725Z,89.20
2018-07-22T14:17:03.069Z,89.00
2018-07-22T14:19:31.504Z,89.00
2018-07-22T14:21:59.861Z,89.40
2018-07-22T14:24:28.252Z,91.30
2018-07-22T14:26:56.679Z,90.80
2018-07-22T14:29:25.105Z,88.50
2018-07-22T14:31:53.578Z,89.20
2018-07-22T14:34:21.937Z,89.90
2018-07-22T14:36:50.469Z,90.00
2018-07-22T14:39:18.760Z,90.50
2018-07-22T14:41:47.200Z,91.20
2018-07-22T14:44:15.619Z,90.60
2018-07-22T14:46:44.083Z,90.50
2018-07-22T14:49:12.479Z,89.40
2018-07-22T14:51:40.875Z,90.70
2018-07-22T14:56:37.548Z,91.70
2018-07-22T14:59:06.006Z,91.90
2018-07-22T15:01:34.378Z,92.00
2018-07-22T15:06:30.964Z,92.20
2018-07-22T15:08:59.418Z,92.00
2018-07-22T15:13:56.020Z,92.30
2018-07-22T15:16:24.321Z,93.40
2018-07-22T15:18:52.619Z,91.50
2018-07-22T15:21:21.025Z,92.70
2018-07-22T15:23:49.403Z,91.80
2018-07-22T15:26:17.890Z,91.70
2018-07-22T15:28:46.363Z,91.70
2018-07-22T15:31:14.777Z,92.90
2018-07-22T15:33:43.230Z,93.10
2018-07-22T15:36:11.666Z,92.50
2018-07-22T15:39:43.040Z,93.40
2018-07-22T15:42:11.441Z,92.90
2018-07-22T15:44:39.941Z,93.20
2018-07-22T15:47:08.435Z,92.60
2018-07-22T15:49:36.869Z,92.50
2018-07-22T15:52:05.271Z,93.70
2018-07-22T15:54:33.677Z,94.60
2018-07-22T15:57:02.115Z,93.20
2018-07-22T15:59:30.464Z,93.30
2018-07-22T16:01:58.782Z,92.70
2018-07-22T16:04:27.092Z,93.00
2018-07-22T16:06:56.274Z,93.30
2018-07-22T16:09:24.712Z,93.70
2018-07-22T16:11:53.181Z,95.10
2018-07-22T16:14:21.848Z,94.20
2018-07-22T16:16:50.167Z,93.30
2018-07-22T16:19:18.506Z,93.20
2018-07-22T16:21:47.734Z,93.20
2018-07-22T16:24:16.052Z,93.30
2018-07-22T16:26:44.511Z,93.60
2018-07-22T16:29:12.963Z,94.30
2018-07-22T16:31:41.262Z,93.40
2018-07-22T16:34:09.593Z,93.80
2018-07-22T16:36:37.969Z,94.10
2018-07-22T16:39:08.717Z,93.80
2018-07-22T16:41:37.456Z,94.10
2018-07-22T16:46:35.078Z,93.80
2018-07-22T16:49:03.572Z,94.00
2018-07-22T16:51:32.117Z,94.30
2018-07-22T16:54:00.691Z,93.70
2018-07-22T16:56:28.990Z,93.50
2018-07-22T16:58:58.324Z,93.40
2018-07-22T17:01:26.689Z,93.50
2018-07-22T17:03:55.091Z,93.60
2018-07-22T17:06:23.424Z,93.40
2018-07-22T17:08:51.706Z,93.70
2018-07-22T17:11:20.204Z,94.00
2018-07-22T17:13:48.688Z,95.00
2018-07-22T17:16:18.024Z,95.40
2018-07-22T17:18:46.756Z,96.10
2018-07-22T17:21:15.220Z,96.60
2018-07-22T17:23:43.575Z,96.40
2018-07-22T17:26:12.069Z,96.40
2018-07-22T17:28:40.394Z,96.60
2018-07-22T17:31:09.986Z,96.80
2018-07-22T17:33:38.392Z,96.90
2018-07-22T17:36:06.814Z,96.60
2018-07-22T17:38:35.385Z,97.00
2018-07-22T17:41:04.328Z,97.60
2018-07-22T17:43:32.762Z,97.70
2018-07-22T17:46:02.211Z,97.50
2018-07-22T17:48:30.645Z,97.90
2018-07-22T17:50:59.008Z,98.10
2018-07-22T17:53:27.343Z,97.90
2018-07-22T17:58:25.232Z,98.10
2018-07-22T18:00:53.543Z,97.80
2018-07-22T18:03:32.108Z,97.90
2018-07-22T18:06:07.293Z,98.40
2018-07-22T18:08:35.645Z,98.10
2018-07-22T18:11:03.942Z,98.20
2018-07-22T18:13:32.342Z,98.50
2018-07-22T18:16:00.692Z,98.60
2018-07-22T18:18:28.984Z,98.80
2018-07-22T18:20:57.375Z,99.00
2018-07-22T18:23:25.733Z,99.50
2018-07-22T18:25:54.036Z,99.70
2018-07-22T18:28:22.381Z,99.90
2018-07-22T18:30:52.029Z,99.90
2018-07-22T18:33:20.370Z,99.90
2018-07-22T18:35:48.649Z,99.90
2018-07-22T18:40:45.072Z,99.90
2018-07-22T18:43:13.341Z,99.90
2018-07-22T18:45:41.668Z,99.90
2018-07-22T18:48:10.155Z,99.90
2018-07-22T18:50:38.518Z,99.90
2018-07-22T18:53:06.954Z,99.90
2018-07-22T18:55:35.330Z,99.90
2018-07-22T18:58:03.704Z,99.90
2018-07-22T19:00:32.222Z,99.90
2018-07-22T19:03:00.645Z,99.90
2018-07-22T19:05:29.045Z,99.90
2018-07-22T19:07:57.399Z,99.90
2018-07-22T19:10:25.719Z,99.90
2018-07-22T19:12:54.042Z,99.90
2018-07-22T19:15:22.420Z,99.90
2018-07-22T19:17:50.882Z,99.90
2018-07-22T19:20:19.158Z,99.90
2018-07-22T19:22:48.483Z,99.90
2018-07-22T19:25:17.862Z,99.90
2018-07-22T19:27:46.070Z,99.90
2018-07-22T19:30:14.432Z,99.90
2018-07-22T19:32:42.762Z,99.90
2018-07-22T19:35:11.094Z,99.90
2018-07-22T19:37:41.500Z,99.90
2018-07-22T19:40:10.010Z,99.90
2018-07-22T19:42:38.445Z,99.90
2018-07-22T19:45:06.830Z,99.90
2018-07-22T19:47:36.200Z,99.90
2018-07-22T19:50:04.587Z,99.90
2018-07-22T19:52:32.957Z,99.90
2018-07-22T19:55:01.303Z,99.90
2018-07-22T19:57:29.580Z,99.90
2018-07-22T19:59:57.837Z,99.90
2018-07-22T20:02:26.136Z,99.90
2018-07-22T20:04:54.378Z,99.90
2018-07-22T20:07:22.726Z,99.90
2018-07-22T20:09:51.095Z,99.90
2018-07-22T20:12:19.418Z,99.90
2018-07-22T20:14:47.711Z,99.90
2018-07-22T20:17:16.055Z,99.90
2018-07-22T20:19:46.356Z,99.90
2018-07-22T20:22:14.699Z,99.90
2018-07-22T20:24:43.036Z,99.90
2018-07-22T20:27:12.412Z,99.90
2018-07-22T20:29:40.789Z,99.90
2018-07-22T20:32:09.119Z,99.90
2018-07-22T20:34:37.493Z,99.90
2018-07-22T20:37:06.223Z,99.90
2018-07-22T20:39:34.721Z,99.90
2018-07-22T20:42:03.088Z,99.90
2018-07-22T20:44:32.392Z,99.90
2018-07-22T20:47:00.824Z,99.90
2018-07-22T20:49:29.198Z,99.90
2018-07-22T20:51:57.511Z,99.90
2018-07-22T20:54:25.914Z,99.90
2018-07-22T20:56:54.356Z,99.90
2018-07-22T20:59:22.732Z,99.90
2018-07-22T21:01:52.054Z,99.90
2018-07-22T21:05:23.822Z,99.90
2018-07-22T21:07:52.080Z,99.90
2018-07-22T21:10:20.373Z,99.90
2018-07-22T21:13:00.044Z,99.90
2018-07-22T21:15:28.410Z,99.90
2018-07-22T21:17:56.728Z,99.90
2018-07-22T21:20:26.994Z,99.90
2018-07-22T21:22:55.222Z,99.90
2018-07-22T21:25:24.544Z,99.90
2018-07-22T21:28:03.924Z,99.90
2018-07-22T21:30:33.218Z,99.90
2018-07-22T21:33:01.464Z,99.90
2018-07-22T21:35:29.788Z,99.90
2018-07-22T21:37:58.170Z,99.90
2018-07-22T21:40:26.574Z,99.90
2018-07-22T21:42:54.904Z,99.90
2018-07-22T21:45:23.183Z,99.90
2018-07-22T21:47:51.458Z,99.90
2018-07-22T21:50:19.702Z,99.90
2018-07-22T21:52:48.001Z,99.90
2018-07-22T21:55:16.293Z,99.90
2018-07-22T21:59:33.596Z,99.90
2018-07-22T22:02:01.940Z,99.90
2018-07-22T22:04:30.298Z,99.90
2018-07-22T22:06:58.770Z,99.90
2018-07-22T22:09:27.122Z,99.90
2018-07-22T22:11:55.435Z,99.90
2018-07-22T22:14:23.798Z,99.90
2018-07-22T22:16:52.063Z,99.90
2018-07-22T22:19:20.619Z,99.90
2018-07-22T22:21:48.901Z,99.90
2018-07-22T22:24:17.214Z,99.90
2018-07-22T22:26:45.491Z,99.90
2018-07-22T22:29:14.779Z,99.90
2018-07-22T22:31:43.091Z,99.90
2018-07-22T22:34:11.452Z,99.90
2018-07-22T22:36:39.740Z,99.90
2018-07-22T22:39:11.182Z,99.90
2018-07-22T22:41:39.581Z,99.90
2018-07-22T22:44:08.349Z,99.90
2018-07-22T22:46:40.928Z,99.90
2018-07-22T22:49:09.695Z,99.90
2018-07-22T22:51:38.055Z,99.90
2018-07-22T22:54:06.374Z,99.90
2018-07-22T22:56:34.698Z,99.90
2018-07-22T22:59:14.892Z,99.90
2018-07-22T23:01:43.284Z,99.90
2018-07-22T23:06:39.795Z,99.90
2018-07-22T23:09:10.491Z,99.90
2018-07-22T23:11:39.368Z,99.90
2018-07-22T23:16:36.022Z,99.90
2018-07-22T23:19:04.699Z,99.90
2018-07-22T23:21:33.151Z,99.90
2018-07-22T23:24:02.193Z,99.90
2018-07-22T23:26:31.302Z,99.90
2018-07-22T23:28:59.712Z,99.90
2018-07-22T23:31:28.142Z,99.90
2018-07-22T23:33:56.833Z,99.90
2018-07-22T23:36:25.250Z,99.90
2018-07-22T23:38:53.565Z,99.90
2018-07-22T23:41:21.903Z,99.90
2018-07-22T23:43:50.294Z,99.90
2018-07-22T23:46:19.245Z,99.90
2018-07-22T23:48:48.030Z,99.90
2018-07-22T23:51:16.349Z,99.90
2018-07-22T23:53:44.769Z,99.90
2018-07-22T23:56:13.099Z,99.90
2018-07-22T23:58:41.506Z,99.90
